sensor_id;sensor_type;location;lat;lon;timestamp;P1;durP1;ratioP1;P2;durP2;ratioP2
70071;SDS011;57434;42.794;23.302;2022-11-20T00:01:15;5.50;;;1.33;;
70071;SDS011;57434;42.794;23.302;2022-11-20T00:03:44;7.80;;;1.63;;
70071;SDS011;57434;42.794;23.302;2022-11-20T00:06:15;7.25;;;1.80;;
70071;SDS011;57434;42.794;23.302;2022-11-20T00:08:44;5.22;;;1.52;;
70071;SDS011;57434;42.794;23.302;2022-11-20T00:11:15;5.68;;;1.40;;
70071;SDS011;57434;42.794;23.302;2022-11-20T00:13:44;4.73;;;1.30;;
70071;SDS011;57434;42.794;23.302;2022-11-20T00:16:14;7.47;;;1.40;;
70071;SDS011;57434;42.794;23.302;2022-11-20T00:18:42;5.72;;;1.00;;
70071;SDS011;57434;42.794;23.302;2022-11-20T00:21:10;4.45;;;1.17;;
70071;SDS011;57434;42.794;23.302;2022-11-20T00:23:39;5.60;;;1.38;;
70071;SDS011;57434;42.794;23.302;2022-11-20T00:26:07;3.37;;;1.00;;
70071;SDS011;57434;42.794;23.302;2022-11-20T00:28:35;5.07;;;1.55;;
70071;SDS011;57434;42.794;23.302;2022-11-20T00:31:03;6.47;;;1.30;;
70071;SDS011;57434;42.794;23.302;2022-11-20T00:33:34;3.50;;;1.30;;
70071;SDS011;57434;42.794;23.302;2022-11-20T00:36:02;4.93;;;1.20;;
70071;SDS011;57434;42.794;23.302;2022-11-20T00:38:33;6.53;;;1.63;;
70071;SDS011;57434;42.794;23.302;2022-11-20T00:41:01;4.10;;;1.40;;
70071;SDS011;57434;42.794;23.302;2022-11-20T00:43:29;4.68;;;1.13;;
70071;SDS011;57434;42.794;23.302;2022-11-20T00:45:57;7.50;;;1.67;;
70071;SDS011;57434;42.794;23.302;2022-11-20T00:48:25;5.32;;;1.05;;
70071;SDS011;57434;42.794;23.302;2022-11-20T00:50:52;5.13;;;1.00;;
70071;SDS011;57434;42.794;23.302;2022-11-20T00:53:20;5.40;;;1.40;;
70071;SDS011;57434;42.794;23.302;2022-11-20T00:55:59;3.53;;;1.23;;
70071;SDS011;57434;42.794;23.302;2022-11-20T00:58:35;3.83;;;1.10;;
70071;SDS011;57434;42.794;23.302;2022-11-20T01:01:04;2.97;;;1.10;;
70071;SDS011;57434;42.794;23.302;2022-11-20T01:03:32;4.10;;;1.00;;
70071;SDS011;57434;42.794;23.302;2022-11-20T01:06:05;4.72;;;1.10;;
70071;SDS011;57434;42.794;23.302;2022-11-20T01:08:34;4.25;;;1.10;;
70071;SDS011;57434;42.794;23.302;2022-11-20T01:11:05;5.05;;;1.10;;
70071;SDS011;57434;42.794;23.302;2022-11-20T01:13:34;6.13;;;1.23;;
70071;SDS011;57434;42.794;23.302;2022-11-20T01:16:03;4.63;;;1.00;;
70071;SDS011;57434;42.794;23.302;2022-11-20T01:18:35;3.10;;;0.85;;
70071;SDS011;57434;42.794;23.302;2022-11-20T01:21:07;3.50;;;1.00;;
70071;SDS011;57434;42.794;23.302;2022-11-20T01:23:37;3.85;;;1.10;;
70071;SDS011;57434;42.794;23.302;2022-11-20T01:26:07;4.00;;;1.13;;
70071;SDS011;57434;42.794;23.302;2022-11-20T01:28:38;5.00;;;1.17;;
70071;SDS011;57434;42.794;23.302;2022-11-20T01:31:21;4.10;;;1.10;;
70071;SDS011;57434;42.794;23.302;2022-11-20T01:33:51;3.25;;;0.90;;
70071;SDS011;57434;42.794;23.302;2022-11-20T01:36:19;7.10;;;1.23;;
70071;SDS011;57434;42.794;23.302;2022-11-20T01:38:50;6.80;;;1.42;;
70071;SDS011;57434;42.794;23.302;2022-11-20T01:41:25;5.90;;;1.13;;
70071;SDS011;57434;42.794;23.302;2022-11-20T01:43:53;7.57;;;1.73;;
70071;SDS011;57434;42.794;23.302;2022-11-20T01:46:20;6.80;;;1.30;;
70071;SDS011;57434;42.794;23.302;2022-11-20T01:51:25;6.50;;;1.60;;
70071;SDS011;57434;42.794;23.302;2022-11-20T01:54:06;4.13;;;1.30;;
70071;SDS011;57434;42.794;23.302;2022-11-20T01:56:48;4.03;;;0.90;;
70071;SDS011;57434;42.794;23.302;2022-11-20T01:59:21;6.03;;;1.30;;
70071;SDS011;57434;42.794;23.302;2022-11-20T02:01:50;6.00;;;1.20;;
70071;SDS011;57434;42.794;23.302;2022-11-20T02:04:18;7.68;;;1.42;;
70071;SDS011;57434;42.794;23.302;2022-11-20T02:06:49;4.27;;;1.20;;
70071;SDS011;57434;42.794;23.302;2022-11-20T02:09:25;6.60;;;1.67;;
70071;SDS011;57434;42.794;23.302;2022-11-20T02:11:52;3.70;;;1.15;;
70071;SDS011;57434;42.794;23.302;2022-11-20T02:14:20;6.07;;;1.20;;
70071;SDS011;57434;42.794;23.302;2022-11-20T02:16:48;3.60;;;1.10;;
70071;SDS011;57434;42.794;23.302;2022-11-20T02:19:22;6.43;;;1.07;;
70071;SDS011;57434;42.794;23.302;2022-11-20T02:22:00;5.43;;;0.95;;
70071;SDS011;57434;42.794;23.302;2022-11-20T02:24:33;3.42;;;0.93;;
70071;SDS011;57434;42.794;23.302;2022-11-20T02:29:29;2.75;;;0.98;;
70071;SDS011;57434;42.794;23.302;2022-11-20T02:32:00;2.73;;;0.80;;
70071;SDS011;57434;42.794;23.302;2022-11-20T02:34:29;3.42;;;0.88;;
70071;SDS011;57434;42.794;23.302;2022-11-20T02:36:56;6.45;;;0.98;;
70071;SDS011;57434;42.794;23.302;2022-11-20T02:39:24;5.75;;;1.00;;
70071;SDS011;57434;42.794;23.302;2022-11-20T02:41:54;4.45;;;0.98;;
70071;SDS011;57434;42.794;23.302;2022-11-20T02:44:22;3.77;;;1.30;;
70071;SDS011;57434;42.794;23.302;2022-11-20T02:46:49;4.70;;;1.42;;
70071;SDS011;57434;42.794;23.302;2022-11-20T02:49:16;4.85;;;1.10;;
70071;SDS011;57434;42.794;23.302;2022-11-20T02:51:43;4.15;;;1.17;;
70071;SDS011;57434;42.794;23.302;2022-11-20T02:54:10;4.82;;;1.38;;
70071;SDS011;57434;42.794;23.302;2022-11-20T02:56:38;3.90;;;1.33;;
70071;SDS011;57434;42.794;23.302;2022-11-20T02:59:05;3.65;;;1.17;;
70071;SDS011;57434;42.794;23.302;2022-11-20T03:01:32;4.00;;;0.90;;
70071;SDS011;57434;42.794;23.302;2022-11-20T03:03:59;5.07;;;1.23;;
70071;SDS011;57434;42.794;23.302;2022-11-20T03:06:26;4.55;;;1.20;;
70071;SDS011;57434;42.794;23.302;2022-11-20T03:08:53;3.57;;;1.10;;
70071;SDS011;57434;42.794;23.302;2022-11-20T03:11:20;3.58;;;0.90;;
70071;SDS011;57434;42.794;23.302;2022-11-20T03:13:47;3.72;;;1.50;;
70071;SDS011;57434;42.794;23.302;2022-11-20T03:16:15;6.50;;;1.33;;
70071;SDS011;57434;42.794;23.302;2022-11-20T03:18:44;5.28;;;1.05;;
70071;SDS011;57434;42.794;23.302;2022-11-20T03:21:12;4.73;;;1.07;;
70071;SDS011;57434;42.794;23.302;2022-11-20T03:23:40;5.53;;;0.93;;
70071;SDS011;57434;42.794;23.302;2022-11-20T03:28:39;5.13;;;1.00;;
70071;SDS011;57434;42.794;23.302;2022-11-20T03:31:10;4.45;;;1.17;;
70071;SDS011;57434;42.794;23.302;2022-11-20T03:33:39;4.87;;;0.90;;
70071;SDS011;57434;42.794;23.302;2022-11-20T03:36:08;7.00;;;1.15;;
70071;SDS011;57434;42.794;23.302;2022-11-20T03:38:37;4.03;;;1.20;;
70071;SDS011;57434;42.794;23.302;2022-11-20T03:41:06;3.28;;;1.20;;
70071;SDS011;57434;42.794;23.302;2022-11-20T03:43:37;3.17;;;1.00;;
70071;SDS011;57434;42.794;23.302;2022-11-20T03:46:05;5.73;;;1.23;;
70071;SDS011;57434;42.794;23.302;2022-11-20T03:48:33;4.22;;;1.25;;
70071;SDS011;57434;42.794;23.302;2022-11-20T03:51:10;4.22;;;1.30;;
70071;SDS011;57434;42.794;23.302;2022-11-20T03:53:38;9.30;;;1.58;;
70071;SDS011;57434;42.794;23.302;2022-11-20T03:56:06;3.97;;;1.00;;
70071;SDS011;57434;42.794;23.302;2022-11-20T03:58:37;3.27;;;0.83;;
70071;SDS011;57434;42.794;23.302;2022-11-20T04:01:07;4.45;;;1.13;;
70071;SDS011;57434;42.794;23.302;2022-11-20T04:03:37;5.03;;;1.20;;
70071;SDS011;57434;42.794;23.302;2022-11-20T04:06:06;6.25;;;1.15;;
70071;SDS011;57434;42.794;23.302;2022-11-20T04:08:35;4.85;;;1.50;;
70071;SDS011;57434;42.794;23.302;2022-11-20T04:11:19;4.87;;;1.33;;
70071;SDS011;57434;42.794;23.302;2022-11-20T04:13:51;5.25;;;1.73;;
70071;SDS011;57434;42.794;23.302;2022-11-20T04:16:20;4.05;;;1.08;;
70071;SDS011;57434;42.794;23.302;2022-11-20T04:18:52;2.75;;;1.08;;
70071;SDS011;57434;42.794;23.302;2022-11-20T04:21:20;5.10;;;1.40;;
70071;SDS011;57434;42.794;23.302;2022-11-20T04:23:48;9.73;;;1.37;;
70071;SDS011;57434;42.794;23.302;2022-11-20T04:26:15;3.72;;;0.93;;
70071;SDS011;57434;42.794;23.302;2022-11-20T04:28:42;4.28;;;1.00;;
70071;SDS011;57434;42.794;23.302;2022-11-20T04:31:10;2.78;;;0.88;;
70071;SDS011;57434;42.794;23.302;2022-11-20T04:33:42;5.53;;;0.70;;
70071;SDS011;57434;42.794;23.302;2022-11-20T04:36:16;4.37;;;1.00;;
70071;SDS011;57434;42.794;23.302;2022-11-20T04:38:45;3.13;;;0.88;;
70071;SDS011;57434;42.794;23.302;2022-11-20T04:41:18;2.53;;;0.57;;
70071;SDS011;57434;42.794;23.302;2022-11-20T04:43:49;4.22;;;1.00;;
70071;SDS011;57434;42.794;23.302;2022-11-20T04:46:19;2.20;;;0.70;;
70071;SDS011;57434;42.794;23.302;2022-11-20T04:48:47;4.47;;;0.60;;
70071;SDS011;57434;42.794;23.302;2022-11-20T04:51:14;4.85;;;1.00;;
70071;SDS011;57434;42.794;23.302;2022-11-20T04:53:41;2.65;;;0.80;;
70071;SDS011;57434;42.794;23.302;2022-11-20T04:56:09;3.25;;;0.70;;
70071;SDS011;57434;42.794;23.302;2022-11-20T04:58:37;3.70;;;0.80;;
70071;SDS011;57434;42.794;23.302;2022-11-20T05:01:38;2.90;;;0.73;;
70071;SDS011;57434;42.794;23.302;2022-11-20T05:03:57;1.95;;;0.60;;
70071;SDS011;57434;42.794;23.302;2022-11-20T05:06:24;2.58;;;0.70;;
70071;SDS011;57434;42.794;23.302;2022-11-20T05:08:51;3.95;;;0.80;;
70071;SDS011;57434;42.794;23.302;2022-11-20T05:11:19;4.78;;;0.90;;
70071;SDS011;57434;42.794;23.302;2022-11-20T05:13:48;5.13;;;1.10;;
70071;SDS011;57434;42.794;23.302;2022-11-20T05:16:17;4.68;;;0.90;;
70071;SDS011;57434;42.794;23.302;2022-11-20T05:18:46;4.93;;;1.30;;
70071;SDS011;57434;42.794;23.302;2022-11-20T05:21:13;13.15;;;5.40;;
70071;SDS011;57434;42.794;23.302;2022-11-20T05:23:41;6.78;;;1.80;;
70071;SDS011;57434;42.794;23.302;2022-11-20T05:26:12;3.10;;;0.60;;
70071;SDS011;57434;42.794;23.302;2022-11-20T05:28:41;6.03;;;1.63;;
70071;SDS011;57434;42.794;23.302;2022-11-20T05:31:11;8.45;;;2.45;;
70071;SDS011;57434;42.794;23.302;2022-11-20T05:33:40;11.10;;;3.00;;
70071;SDS011;57434;42.794;23.302;2022-11-20T05:36:08;8.70;;;2.65;;
70071;SDS011;57434;42.794;23.302;2022-11-20T05:38:37;13.30;;;5.00;;
70071;SDS011;57434;42.794;23.302;2022-11-20T05:41:08;8.68;;;3.33;;
70071;SDS011;57434;42.794;23.302;2022-11-20T05:43:44;13.15;;;4.70;;
70071;SDS011;57434;42.794;23.302;2022-11-20T05:46:12;35.05;;;11.35;;
70071;SDS011;57434;42.794;23.302;2022-11-20T05:48:41;10.98;;;2.53;;
70071;SDS011;57434;42.794;23.302;2022-11-20T05:51:10;13.53;;;4.80;;
70071;SDS011;57434;42.794;23.302;2022-11-20T05:53:39;4.75;;;1.30;;
70071;SDS011;57434;42.794;23.302;2022-11-20T05:56:14;6.30;;;1.10;;
70071;SDS011;57434;42.794;23.302;2022-11-20T05:58:43;2.55;;;0.60;;
70071;SDS011;57434;42.794;23.302;2022-11-20T06:01:12;4.28;;;1.00;;
70071;SDS011;57434;42.794;23.302;2022-11-20T06:03:42;3.33;;;1.37;;
70071;SDS011;57434;42.794;23.302;2022-11-20T06:06:10;3.03;;;0.80;;
70071;SDS011;57434;42.794;23.302;2022-11-20T06:08:38;5.95;;;1.70;;
70071;SDS011;57434;42.794;23.302;2022-11-20T06:11:06;10.50;;;2.58;;
70071;SDS011;57434;42.794;23.302;2022-11-20T06:13:35;6.07;;;1.35;;
70071;SDS011;57434;42.794;23.302;2022-11-20T06:16:07;15.83;;;5.90;;
70071;SDS011;57434;42.794;23.302;2022-11-20T06:18:34;13.20;;;4.45;;
70071;SDS011;57434;42.794;23.302;2022-11-20T06:23:30;4.88;;;1.30;;
70071;SDS011;57434;42.794;23.302;2022-11-20T06:26:01;15.32;;;4.97;;
70071;SDS011;57434;42.794;23.302;2022-11-20T06:28:31;19.53;;;6.77;;
70071;SDS011;57434;42.794;23.302;2022-11-20T06:30:58;89.28;;;24.27;;
70071;SDS011;57434;42.794;23.302;2022-11-20T06:33:25;41.35;;;11.73;;
70071;SDS011;57434;42.794;23.302;2022-11-20T06:35:55;14.43;;;4.60;;
70071;SDS011;57434;42.794;23.302;2022-11-20T06:38:27;16.80;;;5.28;;
70071;SDS011;57434;42.794;23.302;2022-11-20T06:40:55;43.83;;;13.63;;
70071;SDS011;57434;42.794;23.302;2022-11-20T06:43:22;22.33;;;5.75;;
70071;SDS011;57434;42.794;23.302;2022-11-20T06:45:53;36.40;;;10.40;;
70071;SDS011;57434;42.794;23.302;2022-11-20T06:48:20;20.23;;;4.90;;
70071;SDS011;57434;42.794;23.302;2022-11-20T06:50:48;22.98;;;5.95;;
70071;SDS011;57434;42.794;23.302;2022-11-20T06:53:15;9.97;;;2.60;;
70071;SDS011;57434;42.794;23.302;2022-11-20T06:55:42;3.35;;;1.08;;
70071;SDS011;57434;42.794;23.302;2022-11-20T06:58:10;16.50;;;4.35;;
70071;SDS011;57434;42.794;23.302;2022-11-20T07:00:37;14.57;;;3.83;;
70071;SDS011;57434;42.794;23.302;2022-11-20T07:03:04;8.40;;;2.25;;
70071;SDS011;57434;42.794;23.302;2022-11-20T07:05:32;6.03;;;1.57;;
70071;SDS011;57434;42.794;23.302;2022-11-20T07:07:59;6.32;;;1.95;;
70071;SDS011;57434;42.794;23.302;2022-11-20T07:10:26;3.13;;;1.00;;
70071;SDS011;57434;42.794;23.302;2022-11-20T07:12:53;3.88;;;1.35;;
70071;SDS011;57434;42.794;23.302;2022-11-20T07:15:22;5.15;;;1.30;;
70071;SDS011;57434;42.794;23.302;2022-11-20T07:17:50;5.23;;;1.17;;
70071;SDS011;57434;42.794;23.302;2022-11-20T07:20:17;6.13;;;1.35;;
70071;SDS011;57434;42.794;23.302;2022-11-20T07:22:44;4.85;;;1.30;;
70071;SDS011;57434;42.794;23.302;2022-11-20T07:25:11;6.72;;;1.60;;
70071;SDS011;57434;42.794;23.302;2022-11-20T07:27:39;10.40;;;2.90;;
70071;SDS011;57434;42.794;23.302;2022-11-20T07:30:06;11.30;;;3.60;;
70071;SDS011;57434;42.794;23.302;2022-11-20T07:32:34;16.10;;;5.93;;
70071;SDS011;57434;42.794;23.302;2022-11-20T07:35:02;8.88;;;1.83;;
70071;SDS011;57434;42.794;23.302;2022-11-20T07:37:29;54.63;;;16.80;;
70071;SDS011;57434;42.794;23.302;2022-11-20T07:39:57;28.13;;;8.90;;
70071;SDS011;57434;42.794;23.302;2022-11-20T07:42:24;20.27;;;5.27;;
70071;SDS011;57434;42.794;23.302;2022-11-20T07:44:52;24.00;;;6.78;;
70071;SDS011;57434;42.794;23.302;2022-11-20T07:47:19;24.63;;;5.38;;
70071;SDS011;57434;42.794;23.302;2022-11-20T07:49:47;9.90;;;2.25;;
70071;SDS011;57434;42.794;23.302;2022-11-20T07:52:15;11.23;;;2.70;;
70071;SDS011;57434;42.794;23.302;2022-11-20T07:54:43;12.03;;;3.30;;
70071;SDS011;57434;42.794;23.302;2022-11-20T07:57:12;20.02;;;5.18;;
70071;SDS011;57434;42.794;23.302;2022-11-20T07:59:40;44.78;;;12.65;;
70071;SDS011;57434;42.794;23.302;2022-11-20T08:02:12;29.45;;;8.52;;
70071;SDS011;57434;42.794;23.302;2022-11-20T08:04:40;41.17;;;13.45;;
70071;SDS011;57434;42.794;23.302;2022-11-20T08:07:08;26.23;;;8.87;;
70071;SDS011;57434;42.794;23.302;2022-11-20T08:09:37;8.27;;;2.65;;
70071;SDS011;57434;42.794;23.302;2022-11-20T08:12:05;10.70;;;4.45;;
70071;SDS011;57434;42.794;23.302;2022-11-20T08:14:32;7.88;;;3.33;;
70071;SDS011;57434;42.794;23.302;2022-11-20T08:17:01;5.82;;;1.77;;
70071;SDS011;57434;42.794;23.302;2022-11-20T08:19:29;7.90;;;2.80;;
70071;SDS011;57434;42.794;23.302;2022-11-20T08:21:56;7.25;;;2.17;;
70071;SDS011;57434;42.794;23.302;2022-11-20T08:24:25;6.05;;;1.92;;
70071;SDS011;57434;42.794;23.302;2022-11-20T08:26:53;12.45;;;3.90;;
70071;SDS011;57434;42.794;23.302;2022-11-20T08:29:20;8.95;;;1.88;;
70071;SDS011;57434;42.794;23.302;2022-11-20T08:31:48;8.43;;;2.67;;
70071;SDS011;57434;42.794;23.302;2022-11-20T08:34:16;8.30;;;3.28;;
70071;SDS011;57434;42.794;23.302;2022-11-20T08:36:45;11.93;;;3.67;;
70071;SDS011;57434;42.794;23.302;2022-11-20T08:39:14;10.70;;;3.40;;
70071;SDS011;57434;42.794;23.302;2022-11-20T08:41:45;3.95;;;1.48;;
70071;SDS011;57434;42.794;23.302;2022-11-20T08:44:14;6.80;;;2.70;;
70071;SDS011;57434;42.794;23.302;2022-11-20T08:46:42;21.42;;;9.93;;
70071;SDS011;57434;42.794;23.302;2022-11-20T08:49:11;9.77;;;2.83;;
70071;SDS011;57434;42.794;23.302;2022-11-20T08:51:41;10.40;;;2.85;;
70071;SDS011;57434;42.794;23.302;2022-11-20T08:54:10;6.70;;;1.90;;
70071;SDS011;57434;42.794;23.302;2022-11-20T08:56:38;6.67;;;1.57;;
70071;SDS011;57434;42.794;23.302;2022-11-20T08:59:07;11.25;;;2.60;;
70071;SDS011;57434;42.794;23.302;2022-11-20T09:01:56;8.68;;;2.75;;
70071;SDS011;57434;42.794;23.302;2022-11-20T09:04:25;11.95;;;3.65;;
70071;SDS011;57434;42.794;23.302;2022-11-20T09:06:54;8.93;;;3.47;;
70071;SDS011;57434;42.794;23.302;2022-11-20T09:09:24;21.10;;;9.50;;
70071;SDS011;57434;42.794;23.302;2022-11-20T09:11:52;14.43;;;6.68;;
70071;SDS011;57434;42.794;23.302;2022-11-20T09:14:20;15.93;;;7.95;;
70071;SDS011;57434;42.794;23.302;2022-11-20T09:16:48;13.95;;;6.35;;
70071;SDS011;57434;42.794;23.302;2022-11-20T09:19:16;12.98;;;4.75;;
70071;SDS011;57434;42.794;23.302;2022-11-20T09:22:02;9.07;;;2.80;;
70071;SDS011;57434;42.794;23.302;2022-11-20T09:24:30;11.23;;;3.65;;
70071;SDS011;57434;42.794;23.302;2022-11-20T09:27:01;12.10;;;4.07;;
70071;SDS011;57434;42.794;23.302;2022-11-20T09:29:30;7.53;;;2.97;;
70071;SDS011;57434;42.794;23.302;2022-11-20T09:31:59;7.95;;;2.00;;
70071;SDS011;57434;42.794;23.302;2022-11-20T09:34:28;6.27;;;1.60;;
70071;SDS011;57434;42.794;23.302;2022-11-20T09:36:56;21.27;;;10.05;;
70071;SDS011;57434;42.794;23.302;2022-11-20T09:39:29;5.70;;;2.00;;
70071;SDS011;57434;42.794;23.302;2022-11-20T09:50:36;11.23;;;2.67;;
70071;SDS011;57434;42.794;23.302;2022-11-20T09:56:53;24.02;;;5.40;;
70071;SDS011;57434;42.794;23.302;2022-11-20T09:59:32;17.83;;;5.45;;
70071;SDS011;57434;42.794;23.302;2022-11-20T10:05:15;10.30;;;3.90;;
70071;SDS011;57434;42.794;23.302;2022-11-20T10:07:47;19.30;;;3.28;;
70071;SDS011;57434;42.794;23.302;2022-11-20T10:10:28;12.63;;;2.80;;
70071;SDS011;57434;42.794;23.302;2022-11-20T10:16:03;15.83;;;4.50;;
70071;SDS011;57434;42.794;23.302;2022-11-20T10:30:28;20.70;;;8.17;;
70071;SDS011;57434;42.794;23.302;2022-11-20T10:32:50;19.25;;;3.80;;
70071;SDS011;57434;42.794;23.302;2022-11-20T10:37:58;9.93;;;2.70;;
70071;SDS011;57434;42.794;23.302;2022-11-20T10:43:04;8.57;;;2.63;;
70071;SDS011;57434;42.794;23.302;2022-11-20T10:45:46;8.05;;;2.22;;
70071;SDS011;57434;42.794;23.302;2022-11-20T10:48:26;10.85;;;3.22;;
70071;SDS011;57434;42.794;23.302;2022-11-20T10:56:20;8.47;;;2.77;;
70071;SDS011;57434;42.794;23.302;2022-11-20T11:01:25;14.60;;;3.90;;
70071;SDS011;57434;42.794;23.302;2022-11-20T11:03:54;10.65;;;2.65;;
70071;SDS011;57434;42.794;23.302;2022-11-20T11:06:32;18.30;;;3.47;;
70071;SDS011;57434;42.794;23.302;2022-11-20T11:09:13;14.50;;;3.33;;
70071;SDS011;57434;42.794;23.302;2022-11-20T11:11:46;10.10;;;2.17;;
70071;SDS011;57434;42.794;23.302;2022-11-20T11:14:15;6.15;;;1.10;;
70071;SDS011;57434;42.794;23.302;2022-11-20T11:16:53;8.00;;;1.10;;
70071;SDS011;57434;42.794;23.302;2022-11-20T11:19:23;4.88;;;0.95;;
70071;SDS011;57434;42.794;23.302;2022-11-20T11:21:56;1.30;;;0.40;;
70071;SDS011;57434;42.794;23.302;2022-11-20T11:24:24;8.18;;;1.60;;
70071;SDS011;57434;42.794;23.302;2022-11-20T11:27:12;3.58;;;0.80;;
70071;SDS011;57434;42.794;23.302;2022-11-20T11:29:43;4.05;;;0.93;;
70071;SDS011;57434;42.794;23.302;2022-11-20T11:32:12;4.80;;;1.00;;
70071;SDS011;57434;42.794;23.302;2022-11-20T11:35:04;4.37;;;0.80;;
70071;SDS011;57434;42.794;23.302;2022-11-20T11:37:34;6.80;;;1.27;;
70071;SDS011;57434;42.794;23.302;2022-11-20T11:40:05;4.43;;;0.88;;
70071;SDS011;57434;42.794;23.302;2022-11-20T11:42:56;7.85;;;1.90;;
70071;SDS011;57434;42.794;23.302;2022-11-20T11:45:27;6.72;;;1.73;;
70071;SDS011;57434;42.794;23.302;2022-11-20T11:47:58;5.17;;;1.20;;
70071;SDS011;57434;42.794;23.302;2022-11-20T11:50:30;15.82;;;2.38;;
70071;SDS011;57434;42.794;23.302;2022-11-20T12:04:05;7.60;;;2.22;;
70071;SDS011;57434;42.794;23.302;2022-11-20T12:06:43;9.82;;;1.80;;
70071;SDS011;57434;42.794;23.302;2022-11-20T12:09:15;8.05;;;1.85;;
70071;SDS011;57434;42.794;23.302;2022-11-20T12:11:53;4.60;;;1.40;;
70071;SDS011;57434;42.794;23.302;2022-11-20T12:14:35;7.40;;;1.80;;
70071;SDS011;57434;42.794;23.302;2022-11-20T12:17:07;8.02;;;2.08;;
70071;SDS011;57434;42.794;23.302;2022-11-20T12:19:39;5.72;;;1.95;;
70071;SDS011;57434;42.794;23.302;2022-11-20T12:30:58;22.55;;;9.82;;
70071;SDS011;57434;42.794;23.302;2022-11-20T12:36:18;14.63;;;6.45;;
70071;SDS011;57434;42.794;23.302;2022-11-20T12:44:52;9.60;;;4.45;;
70071;SDS011;57434;42.794;23.302;2022-11-20T12:50:49;4.88;;;1.55;;
70071;SDS011;57434;42.794;23.302;2022-11-20T12:54:03;8.30;;;1.42;;
70071;SDS011;57434;42.794;23.302;2022-11-20T12:56:57;3.37;;;0.90;;
70071;SDS011;57434;42.794;23.302;2022-11-20T13:00:17;3.08;;;0.70;;
70071;SDS011;57434;42.794;23.302;2022-11-20T13:08:47;5.43;;;0.80;;
70071;SDS011;57434;42.794;23.302;2022-11-20T13:11:27;2.80;;;0.70;;
70071;SDS011;57434;42.794;23.302;2022-11-20T13:16:57;4.07;;;0.70;;
70071;SDS011;57434;42.794;23.302;2022-11-20T13:19:32;6.88;;;1.35;;
70071;SDS011;57434;42.794;23.302;2022-11-20T13:22:02;2.67;;;0.70;;
70071;SDS011;57434;42.794;23.302;2022-11-20T13:24:31;7.67;;;1.20;;
70071;SDS011;57434;42.794;23.302;2022-11-20T13:29:43;6.45;;;2.00;;
70071;SDS011;57434;42.794;23.302;2022-11-20T13:34:51;7.70;;;2.10;;
70071;SDS011;57434;42.794;23.302;2022-11-20T13:37:37;4.80;;;1.30;;
70071;SDS011;57434;42.794;23.302;2022-11-20T13:42:45;2.45;;;0.50;;
70071;SDS011;57434;42.794;23.302;2022-11-20T13:45:26;3.92;;;0.90;;
70071;SDS011;57434;42.794;23.302;2022-11-20T13:47:56;6.72;;;0.95;;
70071;SDS011;57434;42.794;23.302;2022-11-20T13:53:32;2.40;;;0.50;;
70071;SDS011;57434;42.794;23.302;2022-11-20T13:59:12;4.78;;;0.75;;
70071;SDS011;57434;42.794;23.302;2022-11-20T14:02:01;8.15;;;3.05;;
70071;SDS011;57434;42.794;23.302;2022-11-20T14:04:30;10.87;;;3.57;;
70071;SDS011;57434;42.794;23.302;2022-11-20T14:07:02;6.03;;;1.20;;
70071;SDS011;57434;42.794;23.302;2022-11-20T14:09:33;7.90;;;1.45;;
70071;SDS011;57434;42.794;23.302;2022-11-20T14:12:02;8.60;;;3.25;;
70071;SDS011;57434;42.794;23.302;2022-11-20T14:14:32;3.50;;;0.73;;
70071;SDS011;57434;42.794;23.302;2022-11-20T14:17:04;3.77;;;0.67;;
70071;SDS011;57434;42.794;23.302;2022-11-20T14:19:56;8.25;;;0.75;;
70071;SDS011;57434;42.794;23.302;2022-11-20T14:22:29;3.63;;;0.90;;
70071;SDS011;57434;42.794;23.302;2022-11-20T14:25:18;5.80;;;1.35;;
70071;SDS011;57434;42.794;23.302;2022-11-20T14:28:00;11.23;;;1.45;;
70071;SDS011;57434;42.794;23.302;2022-11-20T14:30:50;7.07;;;1.10;;
70071;SDS011;57434;42.794;23.302;2022-11-20T14:33:18;3.70;;;1.00;;
70071;SDS011;57434;42.794;23.302;2022-11-20T14:35:48;8.95;;;3.25;;
70071;SDS011;57434;42.794;23.302;2022-11-20T14:38:18;6.13;;;1.70;;
70071;SDS011;57434;42.794;23.302;2022-11-20T14:40:51;22.20;;;9.40;;
70071;SDS011;57434;42.794;23.302;2022-11-20T14:43:27;11.77;;;3.53;;
70071;SDS011;57434;42.794;23.302;2022-11-20T14:45:57;3.55;;;0.80;;
70071;SDS011;57434;42.794;23.302;2022-11-20T14:48:50;2.85;;;0.50;;
70071;SDS011;57434;42.794;23.302;2022-11-20T14:54:16;1.77;;;0.40;;
70071;SDS011;57434;42.794;23.302;2022-11-20T14:57:01;3.03;;;0.40;;
70071;SDS011;57434;42.794;23.302;2022-11-20T14:59:32;2.55;;;0.40;;
70071;SDS011;57434;42.794;23.302;2022-11-20T15:02:07;2.30;;;0.50;;
70071;SDS011;57434;42.794;23.302;2022-11-20T15:04:45;1.27;;;0.35;;
70071;SDS011;57434;42.794;23.302;2022-11-20T15:07:23;5.95;;;0.70;;
70071;SDS011;57434;42.794;23.302;2022-11-20T15:12:31;24.92;;;8.60;;
70071;SDS011;57434;42.794;23.302;2022-11-20T15:15:02;20.42;;;9.27;;
70071;SDS011;57434;42.794;23.302;2022-11-20T15:17:31;34.20;;;13.63;;
70071;SDS011;57434;42.794;23.302;2022-11-20T15:20:05;36.33;;;13.73;;
70071;SDS011;57434;42.794;23.302;2022-11-20T15:22:41;24.50;;;11.17;;
70071;SDS011;57434;42.794;23.302;2022-11-20T15:25:11;8.95;;;4.20;;
70071;SDS011;57434;42.794;23.302;2022-11-20T15:27:42;10.18;;;3.05;;
70071;SDS011;57434;42.794;23.302;2022-11-20T15:30:19;3.67;;;0.60;;
70071;SDS011;57434;42.794;23.302;2022-11-20T15:32:49;3.53;;;0.70;;
70071;SDS011;57434;42.794;23.302;2022-11-20T15:35:20;3.80;;;0.77;;
70071;SDS011;57434;42.794;23.302;2022-11-20T15:37:50;2.10;;;0.40;;
70071;SDS011;57434;42.794;23.302;2022-11-20T15:40:19;1.17;;;0.22;;
70071;SDS011;57434;42.794;23.302;2022-11-20T15:42:49;3.25;;;0.95;;
70071;SDS011;57434;42.794;23.302;2022-11-20T15:45:17;6.15;;;1.80;;
70071;SDS011;57434;42.794;23.302;2022-11-20T15:47:47;11.30;;;2.60;;
70071;SDS011;57434;42.794;23.302;2022-11-20T15:50:15;9.45;;;2.97;;
70071;SDS011;57434;42.794;23.302;2022-11-20T15:52:44;11.57;;;3.35;;
70071;SDS011;57434;42.794;23.302;2022-11-20T15:55:13;7.68;;;2.10;;
70071;SDS011;57434;42.794;23.302;2022-11-20T15:57:41;6.80;;;1.70;;
70071;SDS011;57434;42.794;23.302;2022-11-20T16:00:09;3.13;;;0.70;;
70071;SDS011;57434;42.794;23.302;2022-11-20T16:02:38;2.78;;;0.50;;
70071;SDS011;57434;42.794;23.302;2022-11-20T16:05:09;4.90;;;0.93;;
70071;SDS011;57434;42.794;23.302;2022-11-20T16:07:39;1.95;;;0.40;;
70071;SDS011;57434;42.794;23.302;2022-11-20T16:10:07;1.50;;;0.47;;
70071;SDS011;57434;42.794;23.302;2022-11-20T16:12:36;2.33;;;0.40;;
70071;SDS011;57434;42.794;23.302;2022-11-20T16:15:04;18.85;;;5.60;;
70071;SDS011;57434;42.794;23.302;2022-11-20T16:17:39;9.38;;;2.58;;
70071;SDS011;57434;42.794;23.302;2022-11-20T16:20:09;6.47;;;1.73;;
70071;SDS011;57434;42.794;23.302;2022-11-20T16:22:38;6.28;;;1.95;;
70071;SDS011;57434;42.794;23.302;2022-11-20T16:25:07;5.10;;;0.87;;
70071;SDS011;57434;42.794;23.302;2022-11-20T16:27:36;2.63;;;0.63;;
70071;SDS011;57434;42.794;23.302;2022-11-20T16:30:05;2.58;;;0.52;;
70071;SDS011;57434;42.794;23.302;2022-11-20T16:32:39;0.88;;;0.30;;
70071;SDS011;57434;42.794;23.302;2022-11-20T16:35:08;1.10;;;0.20;;
70071;SDS011;57434;42.794;23.302;2022-11-20T16:37:39;2.77;;;0.50;;
70071;SDS011;57434;42.794;23.302;2022-11-20T16:40:08;3.15;;;0.50;;
70071;SDS011;57434;42.794;23.302;2022-11-20T16:42:39;2.45;;;0.60;;
70071;SDS011;57434;42.794;23.302;2022-11-20T16:45:08;6.35;;;1.15;;
70071;SDS011;57434;42.794;23.302;2022-11-20T16:47:37;2.10;;;0.77;;